createdAt,value
2019-01-26T00:00:21.130Z,36.66
2019-01-26T00:01:21.047Z,36.67
2019-01-26T00:02:21.004Z,36.75
2019-01-26T00:03:21.085Z,36.68
2019-01-26T00:04:21.147Z,36.74
2019-01-26T00:05:21.847Z,36.74
2019-01-26T00:06:21.498Z,36.73
2019-01-26T00:07:21.023Z,36.71
2019-01-26T00:08:21.550Z,36.69
2019-01-26T00:09:21.013Z,36.73
2019-01-26T00:10:21.438Z,36.78
2019-01-26T00:11:21.246Z,36.77
2019-01-26T00:12:21.332Z,36.74
2019-01-26T00:13:21.429Z,36.8
2019-01-26T00:14:21.257Z,36.74
2019-01-26T00:15:21.367Z,36.7
2019-01-26T00:16:21.948Z,36.77
2019-01-26T00:17:21.655Z,36.73
2019-01-26T00:18:21.372Z,36.75
2019-01-26T00:19:21.125Z,36.74
2019-01-26T00:20:21.266Z,36.69
2019-01-26T00:21:21.060Z,36.73
2019-01-26T00:22:21.290Z,36.73
2019-01-26T00:23:21.465Z,36.73
2019-01-26T00:24:20.988Z,36.73
2019-01-26T00:25:21.317Z,36.72
2019-01-26T00:26:21.066Z,36.75
2019-01-26T00:27:21.638Z,36.71
2019-01-26T00:28:21.153Z,36.76
2019-01-26T00:29:21.244Z,36.8
2019-01-26T00:30:21.283Z,36.77
2019-01-26T00:31:21.119Z,36.78
2019-01-26T00:32:21.239Z,36.8
2019-01-26T00:33:21.300Z,36.75
2019-01-26T00:34:21.064Z,36.78
2019-01-26T00:35:21.412Z,36.75
2019-01-26T00:36:21.491Z,36.74
2019-01-26T00:37:21.036Z,36.75
2019-01-26T00:38:21.202Z,36.78
2019-01-26T00:39:21.416Z,36.76
2019-01-26T00:40:22.915Z,36.74
2019-01-26T00:41:21.183Z,36.73
2019-01-26T00:42:21.629Z,36.79
2019-01-26T00:43:21.157Z,36.7
2019-01-26T00:44:21.293Z,36.76
2019-01-26T00:45:21.275Z,36.71
2019-01-26T00:46:20.945Z,36.78
2019-01-26T00:47:21.351Z,36.73
2019-01-26T00:48:21.223Z,36.76
2019-01-26T00:49:24.438Z,36.75
2019-01-26T00:50:21.284Z,36.79
2019-01-26T00:51:21.209Z,36.78
2019-01-26T00:52:21.393Z,36.8
2019-01-26T00:53:20.991Z,36.82
2019-01-26T00:54:21.533Z,36.85
2019-01-26T00:55:21.536Z,36.81
2019-01-26T00:56:21.242Z,36.77
2019-01-26T00:57:21.266Z,36.82
2019-01-26T00:58:23.979Z,36.78
2019-01-26T00:59:21.056Z,36.82
2019-01-26T01:00:21.174Z,36.78
2019-01-26T01:01:21.267Z,36.82
2019-01-26T01:02:21.373Z,36.75
2019-01-26T01:03:21.069Z,36.82
2019-01-26T01:04:21.404Z,36.81
2019-01-26T01:05:21.213Z,36.84
2019-01-26T01:06:26.201Z,36.84
2019-01-26T01:07:21.500Z,36.78
2019-01-26T01:08:21.078Z,36.84
2019-01-26T01:09:21.181Z,36.78
2019-01-26T01:10:21.254Z,36.8
2019-01-26T01:11:21.078Z,36.83
2019-01-26T01:12:21.071Z,36.79
2019-01-26T01:13:21.668Z,36.79
2019-01-26T01:14:20.923Z,36.86
2019-01-26T01:15:21.909Z,36.92
2019-01-26T01:16:21.211Z,36.82
2019-01-26T01:17:20.902Z,36.85
2019-01-26T01:18:21.289Z,36.82
2019-01-26T01:19:22.064Z,36.8
2019-01-26T01:20:21.264Z,36.82
2019-01-26T01:21:21.618Z,36.88
2019-01-26T01:22:21.083Z,36.86
2019-01-26T01:23:21.814Z,36.84
2019-01-26T01:24:21.146Z,36.86
2019-01-26T01:25:21.175Z,36.93
2019-01-26T01:26:21.250Z,36.8
2019-01-26T01:27:21.275Z,36.88
2019-01-26T01:28:21.673Z,36.88
2019-01-26T01:29:21.175Z,36.82
2019-01-26T01:30:21.703Z,36.85
2019-01-26T01:31:20.978Z,36.89
2019-01-26T01:32:21.191Z,36.92
2019-01-26T01:33:21.001Z,36.93
2019-01-26T01:34:21.022Z,36.92
2019-01-26T01:35:21.262Z,36.91
2019-01-26T01:36:21.099Z,36.92
2019-01-26T01:37:21.499Z,36.93
2019-01-26T01:38:21.829Z,36.86
2019-01-26T01:39:21.188Z,36.94
2019-01-26T01:40:20.933Z,36.93
2019-01-26T01:41:21.369Z,36.88
2019-01-26T01:42:21.028Z,36.98
2019-01-26T01:43:21.337Z,36.91
2019-01-26T01:44:21.232Z,36.93
2019-01-26T01:45:21.293Z,36.95
2019-01-26T01:46:21.005Z,36.92
2019-01-26T01:47:21.261Z,36.94
2019-01-26T01:48:22.014Z,36.94
2019-01-26T01:49:20.997Z,36.96
2019-01-26T01:50:21.204Z,36.95
2019-01-26T01:51:21.409Z,36.95
2019-01-26T01:52:22.944Z,36.89
2019-01-26T01:53:21.118Z,37.03
2019-01-26T01:54:21.274Z,36.89
2019-01-26T01:55:20.915Z,36.95
2019-01-26T01:56:21.168Z,36.96
2019-01-26T01:57:22.355Z,36.97
2019-01-26T01:58:21.242Z,36.91
2019-01-26T01:59:21.279Z,36.98
2019-01-26T02:00:21.453Z,36.96
2019-01-26T02:01:21.078Z,36.78
2019-01-26T02:02:21.115Z,36.97
2019-01-26T02:03:21.256Z,36.97
2019-01-26T02:04:21.075Z,36.96
2019-01-26T02:05:21.628Z,36.89
2019-01-26T02:06:21.349Z,36.98
2019-01-26T02:07:20.891Z,36.9
2019-01-26T02:08:21.114Z,36.88
2019-01-26T02:09:21.007Z,36.93
2019-01-26T02:10:21.358Z,36.99
2019-01-26T02:11:21.223Z,36.98
2019-01-26T02:12:21.211Z,36.99
2019-01-26T02:13:21.060Z,36.95
2019-01-26T02:14:21.271Z,37
2019-01-26T02:15:21.382Z,36.93
2019-01-26T02:16:21.015Z,36.97
2019-01-26T02:17:21.432Z,37
2019-01-26T02:18:21.238Z,36.99
2019-01-26T02:19:21.208Z,37.1
2019-01-26T02:20:20.992Z,37.03
2019-01-26T02:21:21.121Z,36.91
2019-01-26T02:22:21.428Z,36.98
2019-01-26T02:23:21.316Z,36.95
2019-01-26T02:24:21.650Z,36.94
2019-01-26T02:25:21.264Z,36.99
2019-01-26T02:26:21.808Z,37
2019-01-26T02:27:21.044Z,37.05
2019-01-26T02:28:21.108Z,36.96
2019-01-26T02:29:21.064Z,37.01
2019-01-26T02:30:21.490Z,36.94
2019-01-26T02:31:21.727Z,37
2019-01-26T02:32:21.115Z,37
2019-01-26T02:33:21.315Z,36.98
2019-01-26T02:34:21.737Z,36.99
2019-01-26T02:35:21.120Z,37.02
2019-01-26T02:36:21.023Z,36.95
2019-01-26T02:37:21.434Z,37.01
2019-01-26T02:38:21.324Z,36.98
2019-01-26T02:39:21.091Z,36.96
2019-01-26T02:40:21.018Z,36.99
2019-01-26T02:41:24.126Z,37.01
2019-01-26T02:42:21.684Z,36.98
2019-01-26T02:43:20.881Z,36.96
2019-01-26T02:44:21.141Z,37
2019-01-26T02:45:21.235Z,37.04
2019-01-26T02:46:20.978Z,37.06
2019-01-26T02:47:21.485Z,37
2019-01-26T02:48:21.388Z,36.97
2019-01-26T02:49:21.417Z,37
2019-01-26T02:50:21.387Z,36.97
2019-01-26T02:51:21.312Z,37.04
2019-01-26T02:52:20.955Z,37.06
2019-01-26T02:53:21.250Z,37.09
2019-01-26T02:54:21.456Z,37.04
2019-01-26T02:55:24.139Z,37.01
2019-01-26T02:56:21.398Z,37
2019-01-26T02:57:21.687Z,37.03
2019-01-26T02:58:21.265Z,37.01
2019-01-26T02:59:21.829Z,37
2019-01-26T03:00:22.940Z,37.03
2019-01-26T03:01:20.966Z,37.03
2019-01-26T03:02:21.107Z,37.04
2019-01-26T03:03:21.202Z,37.06
2019-01-26T03:04:21.359Z,37.06
2019-01-26T03:05:21.082Z,37.05
2019-01-26T03:06:21.068Z,37.11
2019-01-26T03:07:21.355Z,37.12
2019-01-26T03:08:20.926Z,37.08
2019-01-26T03:09:21.588Z,37.08
2019-01-26T03:10:21.099Z,37.1
2019-01-26T03:11:22.925Z,37.07
2019-01-26T03:12:21.389Z,37.06
2019-01-26T03:13:21.015Z,37.05
2019-01-26T03:14:21.414Z,37.07
2019-01-26T03:15:21.133Z,37.01
2019-01-26T03:16:20.930Z,37.08
2019-01-26T03:17:21.463Z,37.03
2019-01-26T03:18:21.119Z,37.04
2019-01-26T03:19:20.974Z,37.05
2019-01-26T03:20:22.909Z,37.05
2019-01-26T03:21:21.240Z,37.06
2019-01-26T03:22:20.925Z,37.1
2019-01-26T03:23:21.558Z,37.08
2019-01-26T03:24:21.184Z,37.08
2019-01-26T03:25:21.248Z,37.04
2019-01-26T03:26:21.735Z,37.1
2019-01-26T03:27:21.152Z,37.06
2019-01-26T03:28:21.133Z,37.12
2019-01-26T03:29:21.415Z,37.08
2019-01-26T03:30:21.195Z,37.08
2019-01-26T03:31:21.449Z,37.09
2019-01-26T03:32:21.571Z,37.07
2019-01-26T03:33:21.833Z,37.06
2019-01-26T03:34:20.794Z,37.08
2019-01-26T03:35:21.258Z,37.1
2019-01-26T03:36:21.131Z,37.09
2019-01-26T03:37:21.215Z,37.11
2019-01-26T03:38:20.968Z,37.12
2019-01-26T03:39:21.284Z,37.11
2019-01-26T03:40:21.570Z,37.07
2019-01-26T03:41:21.060Z,37.09
2019-01-26T03:42:21.062Z,37.03
2019-01-26T03:43:21.126Z,37.07
2019-01-26T03:44:20.945Z,37.04
2019-01-26T03:45:21.103Z,37.04
2019-01-26T03:46:21.312Z,37.1
2019-01-26T03:47:20.929Z,37.02
2019-01-26T03:48:21.123Z,37.09
2019-01-26T03:49:21.115Z,37.05
2019-01-26T03:50:20.936Z,37.12
2019-01-26T03:51:21.365Z,37.12
2019-01-26T03:52:21.192Z,37.12
2019-01-26T03:53:20.922Z,37.13
2019-01-26T03:54:21.260Z,37.07
2019-01-26T03:55:21.284Z,37.06
2019-01-26T03:56:21.017Z,37.09
2019-01-26T03:57:21.045Z,37.07
2019-01-26T03:58:21.145Z,37.1
2019-01-26T03:59:20.885Z,37.12
2019-01-26T04:00:21.007Z,37.09
2019-01-26T04:01:21.131Z,37.11
2019-01-26T04:02:20.952Z,37.11
2019-01-26T04:03:21.323Z,37.13
2019-01-26T04:04:21.144Z,37.14
2019-01-26T04:05:21.175Z,37.1
2019-01-26T04:06:21.206Z,37.12
2019-01-26T04:07:21.180Z,37.14
2019-01-26T04:08:21.256Z,37.1
2019-01-26T04:09:21.440Z,37.17
2019-01-26T04:10:21.487Z,37.14
2019-01-26T04:11:22.113Z,37.16
2019-01-26T04:12:21.251Z,37.2
2019-01-26T04:13:21.242Z,37.12
2019-01-26T04:14:21.085Z,37.18
2019-01-26T04:15:20.957Z,37.12
2019-01-26T04:16:21.334Z,37.17
2019-01-26T04:17:22.241Z,37.13
2019-01-26T04:18:21.092Z,37.12
2019-01-26T04:19:21.202Z,37.1
2019-01-26T04:20:21.249Z,37.18
2019-01-26T04:21:21.042Z,37.2
2019-01-26T04:22:20.932Z,37.18
2019-01-26T04:23:21.148Z,37.17
2019-01-26T04:24:21.206Z,37.21
2019-01-26T04:25:21.121Z,37.19
2019-01-26T04:26:21.025Z,37.17
2019-01-26T04:27:21.027Z,37.16
2019-01-26T04:28:21.341Z,37.18
2019-01-26T04:29:21.219Z,37.18
2019-01-26T04:30:20.867Z,37.18
2019-01-26T04:31:21.636Z,37.17
2019-01-26T04:32:21.072Z,37.15
2019-01-26T04:33:21.685Z,37.13
2019-01-26T04:34:21.248Z,37.2
2019-01-26T04:35:21.357Z,37.19
2019-01-26T04:36:21.191Z,37.21
2019-01-26T04:37:21.160Z,37.22
2019-01-26T04:38:21.037Z,37.18
2019-01-26T04:39:21.391Z,37.16
2019-01-26T04:40:21.154Z,37.19
2019-01-26T04:41:21.079Z,37.19
2019-01-26T04:42:21.197Z,37.19
2019-01-26T04:43:21.182Z,37.12
2019-01-26T04:44:21.347Z,37.13
2019-01-26T04:45:21.353Z,37.15
2019-01-26T04:46:21.119Z,37.12
2019-01-26T04:47:21.036Z,37.16
2019-01-26T04:48:21.414Z,37.17
2019-01-26T04:49:21.147Z,37.17
2019-01-26T04:50:21.224Z,37.22
2019-01-26T04:51:21.140Z,37.18
2019-01-26T04:52:20.840Z,37.13
2019-01-26T04:53:21.200Z,37.17
2019-01-26T04:54:21.639Z,37.1
2019-01-26T04:55:20.904Z,37.05
2019-01-26T04:56:21.457Z,37.08
2019-01-26T04:57:20.994Z,37.01
2019-01-26T04:58:21.513Z,37.02
2019-01-26T04:59:21.035Z,36.98
2019-01-26T05:00:21.331Z,36.97
2019-01-26T05:01:21.088Z,36.98
2019-01-26T05:02:21.031Z,36.97
2019-01-26T05:03:21.030Z,37
2019-01-26T05:04:21.446Z,36.99
2019-01-26T05:05:21.069Z,37.01
2019-01-26T05:06:21.096Z,37.02
2019-01-26T05:07:21.106Z,36.96
2019-01-26T05:08:21.171Z,37.05
2019-01-26T05:09:21.377Z,37.02
2019-01-26T05:10:21.403Z,37.06
2019-01-26T05:11:20.914Z,36.99
2019-01-26T05:12:21.622Z,37.17
2019-01-26T05:13:21.407Z,37.16
2019-01-26T05:14:21.175Z,37.12
2019-01-26T05:15:21.366Z,37.07
2019-01-26T05:16:21.155Z,37.05
2019-01-26T05:17:23.582Z,37.08
2019-01-26T05:18:21.112Z,36.99
2019-01-26T05:19:22.992Z,37.11
2019-01-26T05:20:20.962Z,37.1
2019-01-26T05:21:21.393Z,37.06
2019-01-26T05:22:21.144Z,37.09
2019-01-26T05:23:21.220Z,37.07
2019-01-26T05:24:21.126Z,37.09
2019-01-26T05:25:21.195Z,37.07
2019-01-26T05:26:20.977Z,37.05
2019-01-26T05:27:20.920Z,37.04
2019-01-26T05:28:21.129Z,37.03
2019-01-26T05:29:23.916Z,36.97
2019-01-26T05:30:21.087Z,37
2019-01-26T05:31:21.391Z,36.96
2019-01-26T05:32:20.942Z,36.92
2019-01-26T05:33:20.951Z,36.97
2019-01-26T05:34:21.154Z,36.91
2019-01-26T05:35:21.203Z,36.89
2019-01-26T05:36:20.984Z,36.93
2019-01-26T05:37:21.160Z,36.87
2019-01-26T05:38:21.233Z,36.88
2019-01-26T05:39:21.102Z,36.88
2019-01-26T05:40:21.069Z,36.84
2019-01-26T05:41:21.227Z,36.69
2019-01-26T05:42:21.073Z,36.61
2019-01-26T05:43:21.399Z,36.57
2019-01-26T05:44:20.884Z,36.52
2019-01-26T05:45:21.300Z,36.6
2019-01-26T05:46:21.136Z,36.63
2019-01-26T05:47:23.324Z,36.62
2019-01-26T05:48:20.958Z,36.68
2019-01-26T05:49:21.202Z,36.69
2019-01-26T05:50:21.295Z,36.66
2019-01-26T05:51:20.865Z,36.61
2019-01-26T05:52:21.395Z,36.7
2019-01-26T05:53:20.878Z,36.71
2019-01-26T05:54:21.205Z,36.65
2019-01-26T05:55:21.322Z,36.68
2019-01-26T05:56:21.224Z,36.68
2019-01-26T05:57:21.250Z,36.74
2019-01-26T05:58:21.498Z,36.68
2019-01-26T05:59:21.343Z,36.65
2019-01-26T06:00:21.252Z,36.67
2019-01-26T06:01:21.106Z,36.65
2019-01-26T06:02:21.083Z,36.66
2019-01-26T06:03:21.056Z,36.7
2019-01-26T06:04:21.395Z,36.72
2019-01-26T06:05:21.198Z,36.7
2019-01-26T06:06:21.162Z,36.68
2019-01-26T06:07:21.403Z,36.69
2019-01-26T06:08:23.267Z,36.68
2019-01-26T06:09:21.649Z,36.67
2019-01-26T06:10:21.424Z,36.69
2019-01-26T06:11:25.819Z,36.71
2019-01-26T06:12:21.048Z,36.69
2019-01-26T06:13:21.240Z,36.67
2019-01-26T06:14:21.188Z,36.69
2019-01-26T06:15:20.833Z,36.67
2019-01-26T06:16:21.114Z,36.65
2019-01-26T06:17:21.783Z,36.68
2019-01-26T06:18:21.221Z,36.67
2019-01-26T06:19:21.388Z,36.7
2019-01-26T06:20:24.042Z,36.66
2019-01-26T06:21:21.314Z,36.68
2019-01-26T06:22:21.371Z,36.66
2019-01-26T06:23:21.098Z,36.68
2019-01-26T06:24:21.227Z,36.62
2019-01-26T06:25:21.342Z,36.66
2019-01-26T06:26:20.952Z,36.62
2019-01-26T06:27:21.942Z,36.6
2019-01-26T06:28:21.095Z,36.62
2019-01-26T06:29:21.368Z,36.6
2019-01-26T06:30:21.359Z,36.64
2019-01-26T06:31:21.080Z,36.64
2019-01-26T06:32:21.012Z,36.64
2019-01-26T06:33:21.291Z,36.64
2019-01-26T06:34:21.275Z,36.63
2019-01-26T06:35:22.400Z,36.67
2019-01-26T06:36:21.156Z,36.61
2019-01-26T06:37:21.055Z,36.63
2019-01-26T06:38:21.107Z,36.61
2019-01-26T06:39:20.916Z,36.59
2019-01-26T06:40:21.082Z,36.59
2019-01-26T06:41:21.443Z,36.59
2019-01-26T06:42:21.181Z,36.56
2019-01-26T06:43:21.251Z,36.58
2019-01-26T06:44:20.883Z,36.59
2019-01-26T06:45:22.580Z,36.56
2019-01-26T06:46:21.362Z,36.61
2019-01-26T06:47:24.531Z,36.58
2019-01-26T06:48:21.114Z,36.55
2019-01-26T06:49:22.965Z,36.53
2019-01-26T06:50:21.203Z,36.49
2019-01-26T06:51:21.138Z,36.53
2019-01-26T06:52:21.127Z,36.54
2019-01-26T06:53:21.239Z,36.52
2019-01-26T06:54:21.091Z,36.54
2019-01-26T06:55:20.972Z,36.53
2019-01-26T06:56:20.901Z,36.55
2019-01-26T06:57:21.269Z,36.49
2019-01-26T06:58:21.084Z,36.55
2019-01-26T06:59:21.278Z,36.5
2019-01-26T07:00:21.020Z,36.46
2019-01-26T07:01:21.157Z,36.53
2019-01-26T07:02:21.206Z,36.51
2019-01-26T07:03:20.932Z,36.51
2019-01-26T07:04:21.103Z,36.54
2019-01-26T07:05:21.143Z,36.52
2019-01-26T07:06:20.960Z,36.52
2019-01-26T07:07:21.047Z,36.5
2019-01-26T07:08:21.114Z,36.5
2019-01-26T07:09:21.268Z,36.5
2019-01-26T07:10:21.184Z,36.48
2019-01-26T07:11:20.892Z,36.5
2019-01-26T07:12:21.080Z,36.48
2019-01-26T07:13:21.137Z,36.46
2019-01-26T07:14:21.186Z,36.44
2019-01-26T07:15:21.049Z,36.48
2019-01-26T07:16:21.112Z,36.47
2019-01-26T07:17:20.916Z,36.43
2019-01-26T07:18:21.040Z,36.44
2019-01-26T07:19:21.209Z,36.45
2019-01-26T07:20:20.899Z,36.45
2019-01-26T07:21:21.075Z,36.44
2019-01-26T07:22:21.427Z,36.41
2019-01-26T07:23:20.985Z,36.46
2019-01-26T07:24:21.920Z,36.46
2019-01-26T07:25:21.282Z,36.42
2019-01-26T07:26:21.278Z,36.41
2019-01-26T07:27:20.826Z,36.45
2019-01-26T07:28:21.294Z,36.44
2019-01-26T07:29:21.235Z,36.43
2019-01-26T07:30:21.169Z,36.44
2019-01-26T07:31:21.082Z,36.45
2019-01-26T07:32:20.901Z,36.4
2019-01-26T07:33:21.647Z,36.4
2019-01-26T07:34:21.313Z,36.41
2019-01-26T07:35:20.962Z,36.37
2019-01-26T07:36:20.884Z,36.41
2019-01-26T07:37:21.222Z,36.4
2019-01-26T07:38:20.953Z,36.4
2019-01-26T07:39:21.033Z,36.42
2019-01-26T07:40:21.096Z,36.39
2019-01-26T07:41:21.493Z,36.36
2019-01-26T07:42:21.349Z,36.36
2019-01-26T07:43:21.468Z,36.39
2019-01-26T07:44:20.931Z,36.41
2019-01-26T07:45:20.978Z,36.41
2019-01-26T07:46:21.645Z,36.36
2019-01-26T07:47:20.907Z,36.4
2019-01-26T07:48:21.011Z,36.37
2019-01-26T07:49:21.323Z,36.39
2019-01-26T07:50:20.739Z,36.39
2019-01-26T07:51:21.145Z,36.37
2019-01-26T07:52:21.033Z,36.33
2019-01-26T07:53:21.252Z,36.35
2019-01-26T07:54:21.179Z,36.39
2019-01-26T07:55:21.117Z,36.36
2019-01-26T07:56:21.262Z,36.33
2019-01-26T07:57:21.003Z,36.32
2019-01-26T07:58:21.394Z,36.35
2019-01-26T07:59:21.589Z,36.38
2019-01-26T08:00:21.020Z,36.35
2019-01-26T08:01:21.686Z,36.32
2019-01-26T08:02:23.912Z,36.34
2019-01-26T08:03:21.022Z,36.3
2019-01-26T08:04:21.017Z,36.37
2019-01-26T08:05:21.118Z,36.27
2019-01-26T08:06:21.017Z,36.28
2019-01-26T08:07:21.040Z,36.35
2019-01-26T08:08:20.939Z,36.31
2019-01-26T08:09:21.380Z,36.32
2019-01-26T08:10:21.286Z,36.31
2019-01-26T08:11:21.109Z,36.34
2019-01-26T08:12:20.987Z,36.33
2019-01-26T08:13:21.298Z,36.33
2019-01-26T08:14:20.867Z,36.31
2019-01-26T08:15:22.209Z,36.28
2019-01-26T08:16:21.245Z,36.28
2019-01-26T08:17:21.419Z,36.27
2019-01-26T08:18:24.428Z,36.29
2019-01-26T08:19:21.842Z,36.31
2019-01-26T08:20:21.132Z,36.28
2019-01-26T08:21:21.129Z,36.2
2019-01-26T08:22:21.248Z,36.29
2019-01-26T08:23:21.338Z,36.25
2019-01-26T08:24:21.171Z,36.29
2019-01-26T08:25:21.379Z,36.26
2019-01-26T08:26:21.615Z,36.23
2019-01-26T08:27:20.992Z,36.25
2019-01-26T08:28:20.799Z,36.22
2019-01-26T08:29:21.041Z,36.29
2019-01-26T08:30:20.830Z,36.26
2019-01-26T08:31:21.012Z,36.17
2019-01-26T08:32:22.045Z,36.27
2019-01-26T08:33:21.153Z,36.2
2019-01-26T08:34:21.236Z,36.24
2019-01-26T08:35:20.842Z,36.23
2019-01-26T08:36:21.005Z,36.25
2019-01-26T08:37:21.216Z,36.19
2019-01-26T08:38:24.163Z,36.21
2019-01-26T08:39:21.690Z,36.25
2019-01-26T08:40:21.163Z,36.21
2019-01-26T08:41:21.094Z,36.26
2019-01-26T08:42:22.709Z,36.2
2019-01-26T08:43:22.167Z,36.22
2019-01-26T08:44:21.515Z,36.13
2019-01-26T08:45:21.529Z,36.15
2019-01-26T08:46:21.328Z,36.14
2019-01-26T08:47:23.979Z,36.18
2019-01-26T08:48:21.346Z,36.22
2019-01-26T08:49:21.894Z,36.19
2019-01-26T08:50:22.834Z,36.19
2019-01-26T08:51:21.271Z,36.18
2019-01-26T08:52:21.113Z,36.17
2019-01-26T08:53:21.165Z,36.17
2019-01-26T08:54:21.710Z,36.15
2019-01-26T08:55:21.184Z,36.17
2019-01-26T08:56:21.203Z,36.16
2019-01-26T08:57:21.206Z,36.18
2019-01-26T08:58:21.066Z,36.15
2019-01-26T08:59:21.429Z,36.13
2019-01-26T09:00:22.782Z,36.16
2019-01-26T09:01:21.931Z,36.13
2019-01-26T09:02:25.739Z,36.15
2019-01-26T09:03:20.936Z,36.15
2019-01-26T09:04:21.251Z,36.11
2019-01-26T09:05:21.752Z,36.12
2019-01-26T09:06:21.022Z,36.14
2019-01-26T09:07:22.183Z,36.16
2019-01-26T09:08:21.586Z,36.11
2019-01-26T09:09:20.765Z,36.12
2019-01-26T09:10:21.133Z,36.14
2019-01-26T09:11:21.044Z,36.22
2019-01-26T09:12:21.105Z,36.2
2019-01-26T09:13:21.086Z,36.27
2019-01-26T09:14:21.065Z,36.77
2019-01-26T09:15:20.724Z,36.71
2019-01-26T09:16:21.001Z,36.66
2019-01-26T09:17:21.115Z,36.67
2019-01-26T09:18:20.961Z,36.73
2019-01-26T09:19:21.235Z,36.69
2019-01-26T09:20:21.238Z,36.61
2019-01-26T09:21:20.913Z,36.56
2019-01-26T09:22:23.916Z,36.61
2019-01-26T09:23:20.957Z,36.66
2019-01-26T09:24:21.187Z,36.69
2019-01-26T09:25:20.921Z,36.58
2019-01-26T09:26:21.444Z,36.61
2019-01-26T09:27:21.252Z,36.67
2019-01-26T09:28:20.906Z,36.85
2019-01-26T09:29:21.214Z,36.87
2019-01-26T09:30:20.855Z,37.19
2019-01-26T09:31:21.342Z,37.02
2019-01-26T09:32:21.284Z,36.8
2019-01-26T09:33:21.156Z,36.84
2019-01-26T09:34:21.046Z,36.85
2019-01-26T09:35:21.378Z,36.92
2019-01-26T09:36:20.940Z,36.8
2019-01-26T09:37:22.562Z,36.94
2019-01-26T09:38:20.924Z,36.96
2019-01-26T09:39:21.166Z,36.85
2019-01-26T09:40:20.903Z,36.86
2019-01-26T09:41:21.026Z,37.04
2019-01-26T09:42:20.946Z,36.98
2019-01-26T09:43:21.236Z,37.03
2019-01-26T09:44:21.364Z,36.87
2019-01-26T09:45:20.787Z,36.8
2019-01-26T09:46:21.016Z,36.92
2019-01-26T09:47:20.999Z,36.97
2019-01-26T09:48:20.996Z,36.9
2019-01-26T09:49:20.972Z,37
2019-01-26T09:50:20.840Z,36.98
2019-01-26T09:51:21.204Z,37.03
2019-01-26T09:52:21.278Z,36.85
2019-01-26T09:53:21.204Z,36.99
2019-01-26T09:54:21.253Z,36.95
2019-01-26T09:55:20.821Z,36.92
2019-01-26T09:56:20.821Z,37.07
2019-01-26T09:57:21.168Z,37.01
2019-01-26T09:58:21.159Z,36.85
2019-01-26T09:59:21.577Z,36.86
2019-01-26T10:00:21.043Z,37.01
2019-01-26T10:01:21.099Z,36.84
2019-01-26T10:02:21.263Z,36.85
2019-01-26T10:03:21.230Z,37.01
2019-01-26T10:04:20.766Z,37.08
2019-01-26T10:05:20.926Z,37.07
2019-01-26T10:06:21.028Z,36.98
2019-01-26T10:07:21.121Z,36.94
2019-01-26T10:08:20.897Z,36.98
2019-01-26T10:09:21.033Z,37.09
2019-01-26T10:10:21.239Z,36.94
2019-01-26T10:11:21.428Z,36.97
2019-01-26T10:12:21.981Z,37.11
2019-01-26T10:13:22.705Z,36.81
2019-01-26T10:14:22.459Z,36.82
2019-01-26T10:15:21.476Z,36.88
2019-01-26T10:16:22.063Z,36.88
2019-01-26T10:17:20.982Z,36.96
2019-01-26T10:18:21.160Z,37.1
2019-01-26T10:19:20.801Z,37.04
2019-01-26T10:20:21.387Z,36.94
2019-01-26T10:21:21.043Z,37.02
2019-01-26T10:22:21.413Z,37.06
2019-01-26T10:23:21.949Z,36.95
2019-01-26T10:24:20.971Z,36.97
2019-01-26T10:25:20.843Z,37
2019-01-26T10:26:21.239Z,37.11
2019-01-26T10:27:20.915Z,37.19
2019-01-26T10:28:21.386Z,37.19
2019-01-26T10:29:21.789Z,37.26
2019-01-26T10:30:21.502Z,37.29
2019-01-26T10:31:20.879Z,36.48
2019-01-26T10:32:20.924Z,37.33
2019-01-26T10:33:21.046Z,37.14
2019-01-26T10:34:20.967Z,36.35
2019-01-26T10:35:20.816Z,35.62
2019-01-26T10:36:21.186Z,36.81
2019-01-26T10:37:21.487Z,35.79
2019-01-26T10:38:20.889Z,36.53
2019-01-26T10:39:23.030Z,36.62
2019-01-26T10:40:22.757Z,36.6
2019-01-26T10:41:21.820Z,36
2019-01-26T10:42:21.461Z,36.47
2019-01-26T10:43:21.081Z,36.36
2019-01-26T10:44:21.105Z,36.7
2019-01-26T10:45:21.070Z,36.62
2019-01-26T10:46:21.854Z,36.62
2019-01-26T10:47:20.908Z,36.89
2019-01-26T10:48:22.846Z,36.79
2019-01-26T10:49:21.466Z,36.89
2019-01-26T10:50:21.102Z,36.61
2019-01-26T10:51:20.809Z,36.87
2019-01-26T10:52:21.059Z,36.84
2019-01-26T10:53:21.200Z,36.96
2019-01-26T10:54:20.928Z,36.46
2019-01-26T10:55:22.668Z,37.05
2019-01-26T10:56:21.140Z,36.87
2019-01-26T10:57:21.664Z,37
2019-01-26T10:58:22.557Z,37.06
2019-01-26T10:59:20.714Z,37.32
2019-01-26T11:00:20.920Z,37
2019-01-26T11:01:21.045Z,36.66
2019-01-26T11:02:21.187Z,36.92
2019-01-26T11:03:20.848Z,36.91
2019-01-26T11:04:21.204Z,36.66
2019-01-26T11:05:21.542Z,37.09
2019-01-26T11:06:21.212Z,36.98
2019-01-26T11:07:20.825Z,36.69
2019-01-26T11:08:21.647Z,37.07
2019-01-26T11:09:21.150Z,37.12
2019-01-26T11:10:21.530Z,37.16
2019-01-26T11:11:20.842Z,37.01
2019-01-26T11:12:21.686Z,37.19
2019-01-26T11:13:20.879Z,37.19
2019-01-26T11:14:21.764Z,37.06
2019-01-26T11:15:22.684Z,36.93
2019-01-26T11:16:21.742Z,37.2
2019-01-26T11:17:21.179Z,37.23
2019-01-26T11:18:21.099Z,37.25
2019-01-26T11:19:21.173Z,37.32
2019-01-26T11:20:21.068Z,37.33
2019-01-26T11:21:21.025Z,37.34
2019-01-26T11:22:21.103Z,37.26
2019-01-26T11:23:21.118Z,37.23
2019-01-26T11:24:21.072Z,37.37
2019-01-26T11:25:21.090Z,37.42
2019-01-26T11:26:21.028Z,37.26
2019-01-26T11:27:21.334Z,37.35
2019-01-26T11:28:20.999Z,37.27
2019-01-26T11:29:21.328Z,37.21
2019-01-26T11:30:21.106Z,37.41
2019-01-26T11:31:21.120Z,37.02
2019-01-26T11:32:21.245Z,37.39
2019-01-26T11:33:21.122Z,37.41
2019-01-26T11:34:20.988Z,37.52
2019-01-26T11:35:20.959Z,37.3
2019-01-26T11:36:21.096Z,37.25
2019-01-26T11:37:21.368Z,37.22
2019-01-26T11:38:22.861Z,37.29
2019-01-26T11:39:21.271Z,37.71
2019-01-26T11:40:21.367Z,37.29
2019-01-26T11:41:21.101Z,37.36
2019-01-26T11:42:20.698Z,37.63
2019-01-26T11:43:21.116Z,37.29
2019-01-26T11:44:21.352Z,37.44
2019-01-26T11:45:20.781Z,37.4
2019-01-26T11:46:21.935Z,37.65
2019-01-26T11:47:21.349Z,37.27
2019-01-26T11:48:22.198Z,37.57
2019-01-26T11:49:20.877Z,37.16
2019-01-26T11:50:21.274Z,37.69
2019-01-26T11:51:22.146Z,37.56
2019-01-26T11:52:22.740Z,37.55
2019-01-26T11:53:21.693Z,37.51
2019-01-26T11:54:21.186Z,37.11
2019-01-26T11:55:21.505Z,36.92
2019-01-26T11:56:22.004Z,37.08
2019-01-26T11:57:22.444Z,36.91
2019-01-26T11:58:21.204Z,37.08
2019-01-26T11:59:20.947Z,37.09
2019-01-26T12:00:20.755Z,37.11
2019-01-26T12:01:21.309Z,37.24
2019-01-26T12:02:20.930Z,37.1
2019-01-26T12:03:25.411Z,37.42
2019-01-26T12:04:20.992Z,37.34
2019-01-26T12:05:21.044Z,37.3
2019-01-26T12:06:20.909Z,37.45
2019-01-26T12:07:22.280Z,37.37
2019-01-26T12:08:21.257Z,37.38
2019-01-26T12:09:21.435Z,37.17
2019-01-26T12:10:21.214Z,37.11
2019-01-26T12:11:21.164Z,37.08
2019-01-26T12:12:21.175Z,37
2019-01-26T12:13:21.140Z,36.88
2019-01-26T12:14:21.313Z,36.93
2019-01-26T12:15:23.090Z,36.81
2019-01-26T12:16:27.292Z,36.81
2019-01-26T12:17:21.158Z,36.81
2019-01-26T12:18:21.288Z,36.82
2019-01-26T12:19:22.644Z,36.88
2019-01-26T12:20:21.132Z,36.81
2019-01-26T12:21:21.320Z,36.76
2019-01-26T12:22:21.483Z,36.7
2019-01-26T12:23:21.304Z,36.72
2019-01-26T12:24:21.094Z,36.75
2019-01-26T12:25:20.861Z,36.73
2019-01-26T12:26:21.427Z,36.69
2019-01-26T12:27:21.324Z,36.74
2019-01-26T12:28:20.930Z,36.73
2019-01-26T12:29:20.870Z,36.77
2019-01-26T12:30:21.180Z,36.68
2019-01-26T12:31:21.225Z,36.69
2019-01-26T12:32:22.829Z,36.7
2019-01-26T12:33:21.381Z,36.69
2019-01-26T12:34:21.855Z,36.7
2019-01-26T12:35:21.089Z,36.7
2019-01-26T12:36:20.686Z,36.67
2019-01-26T12:37:22.003Z,36.69
2019-01-26T12:38:21.017Z,36.7
2019-01-26T12:39:21.771Z,36.67
2019-01-26T12:40:21.662Z,36.7
2019-01-26T12:41:23.291Z,36.73
2019-01-26T12:42:21.046Z,36.73
2019-01-26T12:43:20.970Z,36.73
2019-01-26T12:44:20.814Z,36.7
2019-01-26T12:45:20.973Z,36.69
2019-01-26T12:46:20.949Z,36.74
2019-01-26T12:47:21.355Z,36.71
2019-01-26T12:48:21.416Z,36.73
2019-01-26T12:49:21.345Z,36.75
2019-01-26T12:50:20.865Z,36.78
2019-01-26T12:51:21.179Z,36.74
2019-01-26T12:52:20.989Z,36.67
2019-01-26T12:53:21.746Z,36.66
2019-01-26T12:54:20.990Z,36.75
2019-01-26T12:55:21.037Z,36.69
2019-01-26T12:56:20.748Z,36.66